Time;durP1;ratioP1;P1;durP2;ratioP2;P2;SDS_P1;SDS_P2;PMS_P1;PMS_P2;Temp;Humidity;BMP_temperature;BMP_pressure;BME280_temperature;BME280_humidity;BME280_pressure;Samples;Min_cycle;Max_cycle;Signal;HPM_P1;HPM_P2
2021/12/28 00:01:16;;;;;;;15.85;3.28;;;;;;;2.30;100.00;99369.34;4985140;28;20165;-69
2021/12/28 00:03:43;;;;;;;7.82;3.42;;;;;;;2.43;100.00;99352.31;4983392;28;20388;-68
2021/12/28 00:06:10;;;;;;;8.65;4.05;;;;;;;2.45;100.00;99354.63;4984600;28;20035;-69
2021/12/28 00:08:35;;;;;;;9.38;3.20;;;;;;;2.37;100.00;99350.97;4988540;28;20089;-68
2021/12/28 00:11:02;;;;;;;8.88;4.18;;;;;;;2.38;100.00;99347.19;4988832;28;20076;-68
2021/12/28 00:13:29;;;;;;;7.72;3.00;;;;;;;2.55;100.00;99356.84;4990800;28;20023;-69
2021/12/28 00:18:21;;;;;;;5.95;2.85;;;;;;;2.43;100.00;99354.19;4990510;28;20120;-68
2021/12/28 00:20:51;;;;;;;7.03;2.67;;;;;;;2.43;100.00;99344.34;4981541;28;20038;-68
2021/12/28 00:23:19;;;;;;;5.45;3.08;;;;;;;2.49;100.00;99350.19;4986936;28;20100;-68
2021/12/28 00:25:51;;;;;;;6.47;3.45;;;;;;;2.46;100.00;99340.22;4984164;28;20057;-68
2021/12/28 00:28:16;;;;;;;;;;;;;;;2.53;100.00;99340.44;4988453;28;20124;-69
2021/12/28 00:30:47;;;;;;;5.95;2.70;;;;;;;2.34;100.00;99333.03;4991892;28;19918;-67
2021/12/28 00:33:13;;;;;;;8.15;3.75;;;;;;;2.37;100.00;99342.22;4989549;28;20045;-69
2021/12/28 00:35:40;;;;;;;11.18;3.88;;;;;;;2.41;100.00;99348.41;4986863;28;20042;-68
2021/12/28 00:38:08;;;;;;;11.70;3.63;;;;;;;2.43;100.00;99335.59;4983362;28;20042;-68
2021/12/28 00:40:34;;;;;;;7.55;2.45;;;;;;;2.43;100.00;99333.72;4979016;28;20049;-67
2021/12/28 00:43:00;;;;;;;9.43;3.60;;;;;;;2.53;100.00;99338.56;4984164;28;20067;-68
2021/12/28 00:45:26;;;;;;;7.72;3.60;;;;;;;2.60;100.00;99330.03;4973649;28;20045;-68
2021/12/28 00:47:52;;;;;;;4.07;2.55;;;;;;;2.63;100.00;99329.38;4980433;28;20026;-68
2021/12/28 00:50:19;;;;;;;7.97;3.40;;;;;;;2.57;100.00;99322.75;4973890;28;20142;-68
2021/12/28 00:52:46;;;;;;;6.57;3.22;;;;;;;2.56;100.00;99326.50;4983859;28;20506;-68
2021/12/28 00:55:14;;;;;;;11.38;4.32;;;;;;;2.60;100.00;99330.81;4990708;28;20080;-68
2021/12/28 00:57:42;;;;;;;13.40;4.27;;;;;;;2.58;100.00;99319.75;4995048;28;20038;-68
2021/12/28 01:00:23;;;;;;;7.28;3.60;;;;;;;2.67;100.00;99307.09;4966899;28;20115;-68
2021/12/28 01:02:49;;;;;;;11.65;4.18;;;;;;;2.64;100.00;99309.66;4960145;28;20042;-68
2021/12/28 01:05:15;;;;;;;17.65;4.65;;;;;;;2.68;100.00;99308.66;4982965;28;20050;-67
2021/12/28 01:07:42;;;;;;;12.55;3.72;;;;;;;2.76;100.00;99314.97;4982884;28;20053;-68
2021/12/28 01:10:12;;;;;;;6.50;3.28;;;;;;;2.62;100.00;99312.66;4981769;28;20100;-68
2021/12/28 01:12:38;;;;;;;8.70;3.72;;;;;;;2.51;100.00;99316.09;4991972;28;20042;-68
2021/12/28 01:15:06;;;;;;;7.65;3.63;;;;;;;2.60;100.00;99308.78;4988905;28;20031;-68
2021/12/28 01:17:33;;;;;;;7.70;3.75;;;;;;;2.68;100.00;99310.53;4972943;28;20041;-68
2021/12/28 01:19:59;;;;;;;7.82;3.78;;;;;;;2.78;100.00;99304.75;5002507;28;20546;-67
2021/12/28 01:22:25;;;;;;;7.10;3.47;;;;;;;2.68;100.00;99305.22;4975141;28;20061;-68
2021/12/28 01:24:50;;;;;;;5.20;3.80;;;;;;;2.56;100.00;99303.38;4963237;28;20035;-68
2021/12/28 01:27:16;;;;;;;14.13;4.32;;;;;;;2.53;100.00;99293.41;4981218;28;20066;-69
2021/12/28 01:29:41;;;;;;;11.73;3.90;;;;;;;2.66;100.00;99299.47;4986880;28;20388;-68
2021/12/28 01:32:08;;;;;;;13.10;3.28;;;;;;;2.58;100.00;99298.50;4981732;28;20034;-68
2021/12/28 01:34:34;;;;;;;7.82;3.72;;;;;;;2.59;100.00;99301.94;4970984;28;20046;-68
2021/12/28 01:37:00;;;;;;;9.00;4.10;;;;;;;2.56;100.00;99289.31;4971435;28;20039;-68
2021/12/28 01:39:25;;;;;;;11.73;3.63;;;;;;;2.44;100.00;99287.44;4980404;28;20031;-67
2021/12/28 01:41:50;;;;;;;10.52;4.65;;;;;;;2.50;100.00;99287.97;4971799;28;20503;-68
2021/12/28 01:44:16;;;;;;;10.77;4.53;;;;;;;2.57;100.00;99286.34;4980431;28;20062;-68
2021/12/28 01:46:41;;;;;;;6.88;3.05;;;;;;;2.59;100.00;99286.00;4975492;28;20034;-68
2021/12/28 01:49:10;;;;;;;12.75;4.90;;;;;;;2.60;100.00;99290.19;4978185;28;20054;-68
2021/12/28 01:51:37;;;;;;;8.07;3.85;;;;;;;2.61;100.00;99294.41;5000771;28;20042;-68
2021/12/28 01:54:04;;;;;;;9.40;3.00;;;;;;;2.61;100.00;99283.78;4988866;28;20038;-68
2021/12/28 01:56:38;;;;;;;8.82;4.68;;;;;;;2.67;100.00;99282.44;4972254;28;20030;-67
2021/12/28 01:59:05;;;;;;;17.70;4.15;;;;;;;2.72;100.00;99277.66;4976999;28;20038;-67
2021/12/28 02:01:31;;;;;;;8.32;3.45;;;;;;;2.61;100.00;99265.94;4978001;28;20066;-69
2021/12/28 02:03:57;;;;;;;7.22;3.50;;;;;;;2.57;100.00;99258.97;4978630;28;20130;-68
2021/12/28 02:06:25;;;;;;;8.73;4.07;;;;;;;2.60;100.00;99264.41;4989252;28;20038;-68
2021/12/28 02:08:52;;;;;;;9.40;2.90;;;;;;;2.68;100.00;99263.50;4987128;28;20030;-68
2021/12/28 02:11:20;;;;;;;13.02;3.28;;;;;;;2.63;100.00;99257.66;4969000;28;20031;-68
2021/12/28 02:13:46;;;;;;;8.13;3.60;;;;;;;2.58;100.00;99263.97;4969959;28;20026;-67
2021/12/28 02:16:12;;;;;;;11.55;4.65;;;;;;;2.61;100.00;99268.59;4972289;28;20027;-68
2021/12/28 02:18:38;;;;;;;8.32;3.92;;;;;;;2.57;100.00;99254.44;4977563;28;20495;-68
2021/12/28 02:21:06;;;;;;;8.48;3.63;;;;;;;2.62;100.00;99256.09;4985154;28;20042;-68
2021/12/28 02:23:32;;;;;;;12.38;4.35;;;;;;;2.66;100.00;99251.66;4974843;28;20057;-68
2021/12/28 02:25:57;;;;;;;8.23;3.53;;;;;;;2.60;100.00;99258.31;4987134;28;20042;-68
2021/12/28 02:28:23;;;;;;;9.30;4.00;;;;;;;2.47;100.00;99251.47;4988957;28;20042;-68
2021/12/28 02:30:51;;;;;;;9.18;3.75;;;;;;;2.51;100.00;99244.38;4983073;28;20038;-70
2021/12/28 02:33:20;;;;;;;6.75;4.25;;;;;;;2.59;100.00;99238.16;4971498;28;20030;-67
2021/12/28 02:35:46;;;;;;;9.27;3.53;;;;;;;2.47;100.00;99244.28;4986738;28;20113;-68
2021/12/28 02:38:15;;;;;;;7.65;3.83;;;;;;;2.50;100.00;99237.50;4975284;28;20177;-67
2021/12/28 02:40:43;;;;;;;7.80;3.83;;;;;;;2.50;100.00;99229.53;4967573;28;20031;-68
2021/12/28 02:43:11;;;;;;;6.90;3.40;;;;;;;2.43;100.00;99238.09;4976612;28;20038;-67
2021/12/28 02:45:46;;;;;;;7.05;4.18;;;;;;;2.48;100.00;99231.75;4975060;28;20038;-68
2021/12/28 02:48:11;;;;;;;13.13;4.38;;;;;;;2.52;100.00;99229.97;4966036;28;20502;-67
2021/12/28 02:50:43;;;;;;;6.93;3.70;;;;;;;2.53;100.00;99226.22;4978768;28;20030;-68
2021/12/28 02:53:10;;;;;;;7.82;4.07;;;;;;;2.56;100.00;99220.22;4988436;28;20044;-67
2021/12/28 02:55:38;;;;;;;5.78;3.35;;;;;;;2.51;100.00;99225.78;4971110;28;20035;-68
2021/12/28 02:58:10;;;;;;;9.43;3.85;;;;;;;2.53;100.00;99226.22;4951728;28;20113;-68
2021/12/28 03:00:42;;;;;;;9.98;4.88;;;;;;;2.54;100.00;99227.75;4979024;28;20768;-67
2021/12/28 03:03:13;;;;;;;9.40;3.72;;;;;;;2.54;100.00;99230.41;4979846;28;20035;-68
2021/12/28 03:05:41;;;;;;;12.60;3.40;;;;;;;2.53;100.00;99236.84;4982164;28;20040;-67
2021/12/28 03:08:08;;;;;;;6.03;2.97;;;;;;;2.49;100.00;99230.66;4983339;28;20038;-68
2021/12/28 03:10:37;;;;;;;12.70;4.60;;;;;;;2.50;100.00;99229.53;4988970;28;20030;-69
2021/12/28 03:13:05;;;;;;;10.43;3.50;;;;;;;2.46;100.00;99226.00;4954016;28;20547;-68
2021/12/28 03:15:30;;;;;;;11.75;3.55;;;;;;;2.52;100.00;99228.09;4973964;28;20063;-67
2021/12/28 03:17:56;;;;;;;11.52;3.97;;;;;;;2.50;100.00;99234.84;4977992;28;20062;-68
2021/12/28 03:20:21;;;;;;;8.63;4.40;;;;;;;2.53;100.00;99226.22;4973712;28;20039;-68
2021/12/28 03:22:47;;;;;;;10.50;4.05;;;;;;;2.44;100.00;99222.94;4990857;28;20117;-69
2021/12/28 03:25:13;;;;;;;6.60;2.97;;;;;;;2.65;100.00;99224.28;4975863;28;20129;-68
2021/12/28 03:27:38;;;;;;;8.68;3.63;;;;;;;2.57;100.00;99221.78;4988848;28;20046;-69
2021/12/28 03:30:10;;;;;;;8.05;3.55;;;;;;;2.70;100.00;99224.06;4978812;28;20081;-68
2021/12/28 03:32:36;;;;;;;11.43;4.18;;;;;;;2.57;100.00;99221.78;4974798;28;20035;-68
2021/12/28 03:35:03;;;;;;;11.43;3.72;;;;;;;2.55;100.00;99230.09;4983754;28;20406;-68
2021/12/28 03:37:30;;;;;;;10.80;4.70;;;;;;;2.50;100.00;99210.94;4989898;28;20062;-69
2021/12/28 03:39:56;;;;;;;6.38;3.30;;;;;;;2.61;100.00;99201.41;4987737;23;20117;-71
2021/12/28 03:42:21;;;;;;;8.40;5.07;;;;;;;2.54;100.00;99203.84;4979461;28;20035;-71
2021/12/28 03:44:47;;;;;;;10.07;4.20;;;;;;;2.48;100.00;99198.00;4981256;28;20372;-71
2021/12/28 03:47:13;;;;;;;9.07;4.43;;;;;;;2.51;100.00;99193.91;4961851;28;20039;-71
2021/12/28 03:49:38;;;;;;;12.05;4.88;;;;;;;2.50;100.00;99195.78;4971573;28;20039;-71
2021/12/28 03:52:06;;;;;;;7.97;4.07;;;;;;;2.63;100.00;99189.31;4975053;28;20030;-71
2021/12/28 03:54:33;;;;;;;9.70;3.90;;;;;;;2.53;100.00;99168.56;4973644;28;20490;-71
2021/12/28 03:56:58;;;;;;;8.50;3.50;;;;;;;2.53;100.00;99170.44;4974513;28;20483;-71
2021/12/28 03:59:24;;;;;;;6.20;3.60;;;;;;;2.47;100.00;99155.84;4957465;28;20109;-71
2021/12/28 04:01:52;;;;;;;11.45;4.18;;;;;;;2.43;100.00;99157.63;4956943;28;20117;-71
2021/12/28 04:04:18;;;;;;;18.13;4.60;;;;;;;2.54;100.00;99150.72;4973191;28;20096;-71
2021/12/28 04:06:43;;;;;;;13.25;4.38;;;;;;;2.60;100.00;99142.19;4968569;28;20122;-71
2021/12/28 04:09:11;;;;;;;12.57;4.28;;;;;;;2.62;100.00;99152.47;4959778;28;20049;-71
2021/12/28 04:11:37;;;;;;;11.88;3.95;;;;;;;2.63;100.00;99146.06;4971143;28;20038;-71
2021/12/28 04:14:07;;;;;;;8.35;4.70;;;;;;;2.70;100.00;99146.25;4969804;28;20030;-71
2021/12/28 04:16:34;;;;;;;12.57;4.30;;;;;;;2.74;100.00;99139.13;4959372;28;20046;-71
2021/12/28 04:19:00;;;;;;;10.80;4.93;;;;;;;2.63;100.00;99136.19;4981036;28;20084;-71
2021/12/28 04:21:26;;;;;;;17.35;5.20;;;;;;;2.65;100.00;99126.00;4973436;28;20507;-71
2021/12/28 04:23:53;;;;;;;17.63;4.53;;;;;;;2.71;100.00;99134.50;4966800;28;20030;-71
2021/12/28 04:26:20;;;;;;;14.60;4.68;;;;;;;2.72;100.00;99128.06;4979224;28;20042;-71
2021/12/28 04:28:46;;;;;;;16.58;4.30;;;;;;;2.68;100.00;99135.19;4972819;28;20517;-71
2021/12/28 04:31:12;;;;;;;11.93;4.78;;;;;;;2.61;100.00;99137.66;4968296;28;20165;-71
2021/12/28 04:33:38;;;;;;;9.70;4.40;;;;;;;2.62;100.00;99139.19;4971095;28;20146;-71
2021/12/28 04:36:10;;;;;;;12.13;4.45;;;;;;;2.65;100.00;99138.53;4972063;28;20038;-71
2021/12/28 04:38:36;;;;;;;11.32;5.18;;;;;;;2.60;100.00;99136.88;4972677;28;20087;-71
2021/12/28 04:41:02;;;;;;;11.60;4.63;;;;;;;2.59;100.00;99130.00;4967051;28;20039;-71
2021/12/28 04:43:27;;;;;;;10.82;3.83;;;;;;;2.56;100.00;99133.34;4970767;28;20043;-71
2021/12/28 04:45:53;;;;;;;17.02;5.30;;;;;;;2.60;100.00;99133.44;4972121;28;20044;-71
2021/12/28 04:48:18;;;;;;;8.98;4.22;;;;;;;2.70;100.00;99132.94;4969507;28;20130;-71
2021/12/28 04:50:45;;;;;;;9.60;4.50;;;;;;;2.66;100.00;99126.78;4972475;28;20050;-71
2021/12/28 04:53:12;;;;;;;13.02;4.80;;;;;;;2.64;100.00;99124.47;4979622;28;20031;-71
2021/12/28 04:55:40;;;;;;;9.68;4.30;;;;;;;2.74;100.00;99113.34;4972145;28;20027;-71
2021/12/28 04:58:06;;;;;;;18.92;5.22;;;;;;;2.68;100.00;99112.03;4969065;28;20074;-71
2021/12/28 05:00:31;;;;;;;5.68;3.83;;;;;;;2.72;100.00;99122.75;4952497;28;20046;-71
2021/12/28 05:02:57;;;;;;;9.30;5.15;;;;;;;2.74;100.00;99104.59;4977915;28;20030;-71
2021/12/28 05:05:22;;;;;;;15.25;6.13;;;;;;;2.80;100.00;99105.88;4973979;28;20043;-71
2021/12/28 05:07:48;;;;;;;12.20;5.40;;;;;;;2.81;100.00;99104.00;4972306;28;20054;-71
2021/12/28 05:10:14;;;;;;;8.30;3.83;;;;;;;2.84;100.00;99092.69;4968311;28;20039;-71
2021/12/28 05:12:39;;;;;;;11.90;4.70;;;;;;;2.75;100.00;99090.97;4970708;28;20042;-71
2021/12/28 05:15:06;;;;;;;11.75;4.57;;;;;;;2.71;100.00;99106.03;4962392;28;20169;-71
2021/12/28 05:17:33;;;;;;;10.55;3.55;;;;;;;2.69;100.00;99099.53;4963973;28;20100;-71
2021/12/28 05:20:01;;;;;;;10.77;4.43;;;;;;;2.68;100.00;99100.63;4979013;28;20385;-71
2021/12/28 05:22:27;;;;;;;11.95;5.13;;;;;;;2.73;100.00;99093.19;4977725;28;20031;-71
2021/12/28 05:24:52;;;;;;;10.25;3.83;;;;;;;2.77;100.00;99092.53;4956203;28;20481;-71
2021/12/28 05:27:18;;;;;;;9.27;4.45;;;;;;;2.70;100.00;99091.22;4976946;28;20038;-71
2021/12/28 05:29:43;;;;;;;12.98;4.72;;;;;;;2.66;100.00;99085.03;4977157;28;20038;-71
2021/12/28 05:32:09;;;;;;;13.18;4.93;;;;;;;2.83;100.00;99091.91;4959061;28;20057;-71
2021/12/28 05:34:34;;;;;;;10.18;4.45;;;;;;;2.70;100.00;99093.09;4965220;28;20039;-71
2021/12/28 05:37:00;;;;;;;12.18;4.70;;;;;;;2.77;100.00;99098.59;4962192;28;20491;-71
2021/12/28 05:39:25;;;;;;;19.25;5.50;;;;;;;2.78;100.00;99105.47;4959760;28;20039;-71
2021/12/28 05:41:51;;;;;;;14.40;5.18;;;;;;;2.70;100.00;99098.41;4960755;28;20038;-71
2021/12/28 05:44:17;;;;;;;10.57;4.20;;;;;;;2.73;100.00;99105.69;4971358;28;20045;-71
2021/12/28 05:46:46;;;;;;;8.60;3.83;;;;;;;2.67;100.00;99104.41;4971813;28;20093;-71
2021/12/28 05:49:12;;;;;;;7.57;3.97;;;;;;;2.86;100.00;99101.09;4970521;28;20066;-71
2021/12/28 05:51:38;;;;;;;20.80;5.20;;;;;;;2.85;100.00;99097.66;4971744;28;20069;-71
2021/12/28 05:54:03;;;;;;;11.70;5.18;;;;;;;2.72;100.00;99080.25;4970557;28;20034;-71
2021/12/28 05:56:28;;;;;;;11.88;5.70;;;;;;;2.74;100.00;99081.47;4982279;28;20490;-71
2021/12/28 05:58:54;;;;;;;9.48;4.78;;;;;;;2.83;100.00;99077.88;4968004;28;20454;-71
2021/12/28 06:01:19;;;;;;;11.30;5.03;;;;;;;2.94;100.00;99092.19;4971896;28;20487;-71
2021/12/28 06:03:45;;;;;;;12.27;4.70;;;;;;;2.84;100.00;99090.81;4977617;28;20030;-71
2021/12/28 06:06:10;;;;;;;13.65;5.18;;;;;;;2.81;100.00;99088.81;4971792;28;20045;-71
2021/12/28 06:08:36;;;;;;;10.55;4.03;;;;;;;2.80;100.00;99086.50;4960326;28;20028;-71
2021/12/28 06:11:03;;;;;;;15.32;5.50;;;;;;;2.78;100.00;99083.41;4958206;28;20043;-71
2021/12/28 06:13:28;;;;;;;10.35;4.75;;;;;;;2.74;100.00;99088.66;4971424;28;20031;-71
2021/12/28 06:15:55;;;;;;;8.45;4.53;;;;;;;2.76;100.00;99081.13;4959434;28;20027;-71
2021/12/28 06:18:21;;;;;;;9.48;4.75;;;;;;;2.87;100.00;99087.47;4952009;28;20050;-71
2021/12/28 06:20:46;;;;;;;15.52;5.65;;;;;;;2.85;100.00;99087.03;4966817;28;20438;-71
2021/12/28 06:23:12;;;;;;;9.50;6.13;;;;;;;2.86;100.00;99080.63;4953401;28;20072;-71
2021/12/28 06:25:37;;;;;;;15.48;5.18;;;;;;;2.85;100.00;99078.28;4967826;28;20059;-71
2021/12/28 06:28:04;;;;;;;20.00;5.75;;;;;;;2.96;100.00;99074.75;4987370;28;20141;-71
2021/12/28 06:30:30;;;;;;;12.48;4.65;;;;;;;2.87;100.00;99076.03;4970029;28;20458;-71
2021/12/28 06:32:56;;;;;;;19.70;5.15;;;;;;;2.84;100.00;99080.19;4969318;28;20034;-71
2021/12/28 06:35:21;;;;;;;14.60;5.15;;;;;;;2.82;100.00;99077.09;4986300;28;20395;-71
2021/12/28 06:37:47;;;;;;;13.55;4.07;;;;;;;2.90;100.00;99084.13;4971742;28;20476;-70
2021/12/28 06:40:12;;;;;;;10.95;4.28;;;;;;;2.84;100.00;99077.53;4968347;28;20045;-71
2021/12/28 06:42:38;;;;;;;11.30;4.72;;;;;;;2.92;100.00;99083.78;4965471;28;20039;-71
2021/12/28 06:45:05;;;;;;;15.15;5.35;;;;;;;2.84;100.00;99085.50;4968360;28;20399;-71
2021/12/28 06:47:30;;;;;;;19.05;5.28;;;;;;;2.73;100.00;99087.88;4951269;28;20049;-71
2021/12/28 06:49:55;;;;;;;11.60;4.18;;;;;;;2.68;100.00;99085.47;4966126;28;20043;-71
2021/12/28 06:52:21;;;;;;;13.55;5.00;;;;;;;2.69;100.00;99083.59;4981851;28;20061;-71
2021/12/28 06:54:46;;;;;;;11.45;5.05;;;;;;;2.73;100.00;99077.25;4971297;28;20166;-70
2021/12/28 06:57:12;;;;;;;11.15;5.63;;;;;;;2.65;100.00;99064.88;4985936;28;20042;-70
2021/12/28 06:59:48;;;;;;;16.10;4.75;;;;;;;2.75;100.00;99060.94;4978107;28;20036;-70
2021/12/28 07:02:15;;;;;;;9.40;4.28;;;;;;;2.73;100.00;99055.22;4971842;28;20166;-70
2021/12/28 07:04:41;;;;;;;13.90;4.40;;;;;;;2.71;100.00;99058.22;4972949;28;20038;-70
2021/12/28 07:07:08;;;;;;;8.27;4.85;;;;;;;2.83;100.00;99048.63;4955211;28;20200;-70
2021/12/28 07:09:34;;;;;;;16.50;5.90;;;;;;;2.78;100.00;99052.31;4969736;28;20419;-70
2021/12/28 07:12:00;;;;;;;11.23;4.57;;;;;;;2.72;100.00;99053.69;4972343;28;20031;-70
2021/12/28 07:14:25;;;;;;;15.55;5.00;;;;;;;2.70;100.00;99054.03;4969147;28;20484;-70
2021/12/28 07:16:50;;;;;;;10.18;4.13;;;;;;;2.68;100.00;99055.47;4972375;28;20035;-70
2021/12/28 07:19:16;;;;;;;16.27;5.07;;;;;;;2.79;100.00;99051.19;4959283;28;20509;-70
2021/12/28 07:21:42;;;;;;;9.18;4.57;;;;;;;2.76;100.00;99043.91;4960237;28;20070;-72
2021/12/28 07:24:09;;;;;;;10.07;4.55;;;;;;;2.73;100.00;99045.34;4963158;28;20513;-71
2021/12/28 07:26:36;;;;;;;14.00;5.72;;;;;;;2.91;100.00;99045.78;4976028;28;20058;-71
2021/12/28 07:29:02;;;;;;;13.40;4.97;;;;;;;2.79;100.00;99051.19;4969108;28;20476;-71
2021/12/28 07:31:28;;;;;;;13.80;4.95;;;;;;;2.83;100.00;99054.69;4970155;28;20455;-71
2021/12/28 07:33:56;;;;;;;14.07;5.40;;;;;;;2.75;100.00;99037.03;4968754;28;20031;-71
2021/12/28 07:36:22;;;;;;;12.80;3.97;;;;;;;2.85;100.00;99043.72;4961618;28;20062;-71
2021/12/28 07:38:47;;;;;;;11.05;4.55;;;;;;;2.79;100.00;99042.47;4964829;28;20058;-71
2021/12/28 07:41:13;;;;;;;11.80;5.03;;;;;;;2.71;100.00;99026.31;4966218;28;20030;-71
2021/12/28 07:43:39;;;;;;;13.65;4.95;;;;;;;2.72;100.00;99040.41;4969325;28;20043;-70
2021/12/28 07:46:04;;;;;;;18.35;5.80;;;;;;;2.71;100.00;99039.63;4948932;28;20031;-70
2021/12/28 07:48:30;;;;;;;22.67;6.53;;;;;;;2.78;100.00;99032.94;4967806;28;20067;-71
2021/12/28 07:50:56;;;;;;;11.20;4.38;;;;;;;2.86;100.00;99040.75;4961101;28;20027;-70
2021/12/28 07:53:21;;;;;;;10.13;5.68;;;;;;;2.86;100.00;99046.06;4974045;28;20042;-71
2021/12/28 07:55:47;;;;;;;21.10;5.68;;;;;;;2.83;100.00;99044.06;4968976;28;20042;-71
2021/12/28 07:58:12;;;;;;;16.27;5.68;;;;;;;2.86;100.00;99043.41;4954533;28;20053;-71
2021/12/28 08:00:38;;;;;;;16.83;5.50;;;;;;;2.80;100.00;99044.00;4956587;28;20042;-71
2021/12/28 08:03:04;;;;;;;10.82;4.88;;;;;;;2.86;100.00;99038.09;4954555;28;20043;-71
2021/12/28 08:05:34;;;;;;;12.18;5.68;;;;;;;2.77;100.00;99034.81;4956755;28;20043;-71
2021/12/28 08:08:00;;;;;;;18.08;5.88;;;;;;;2.77;100.00;99039.38;4968722;28;20114;-71
2021/12/28 08:10:25;;;;;;;11.82;6.00;;;;;;;2.74;100.00;99033.63;4971913;28;20134;-71
2021/12/28 08:12:56;;;;;;;22.25;7.18;;;;;;;2.70;100.00;99034.66;4966335;28;20484;-71
2021/12/28 08:15:23;;;;;;;11.48;4.65;;;;;;;2.68;100.00;99023.59;4985036;28;20078;-71
2021/12/28 08:17:49;;;;;;;15.98;5.07;;;;;;;2.69;100.00;99027.81;4959718;28;20070;-71
2021/12/28 08:20:17;;;;;;;11.32;4.43;;;;;;;2.77;100.00;99023.44;4952451;28;20511;-71
2021/12/28 08:22:44;;;;;;;14.95;5.63;;;;;;;2.71;100.00;99030.88;4975611;28;20113;-71
2021/12/28 08:25:12;;;;;;;16.15;5.07;;;;;;;2.92;100.00;99026.09;4977500;28;20474;-70
2021/12/28 08:27:41;;;;;;;18.23;4.63;;;;;;;2.87;100.00;99033.53;4974271;28;20046;-71
2021/12/28 08:30:08;;;;;;;11.68;5.05;;;;;;;2.79;100.00;99019.28;4971857;28;20031;-71
2021/12/28 08:32:33;;;;;;;11.00;5.25;;;;;;;2.80;100.00;99014.75;4953861;28;20034;-71
2021/12/28 08:34:59;;;;;;;12.32;5.10;;;;;;;2.75;100.00;99021.09;4955615;28;20027;-71
2021/12/28 08:37:24;;;;;;;10.80;4.95;;;;;;;2.83;100.00;99008.78;4961644;28;20126;-70
2021/12/28 08:39:50;;;;;;;9.70;4.28;;;;;;;2.87;100.00;99007.72;4955466;28;20042;-70
2021/12/28 08:42:16;;;;;;;11.82;5.15;;;;;;;2.90;100.00;99007.06;4954220;28;20045;-71
2021/12/28 08:44:42;;;;;;;12.95;5.38;;;;;;;3.02;100.00;99004.28;4953209;28;20035;-71
2021/12/28 08:47:08;;;;;;;17.05;6.80;;;;;;;3.08;100.00;99004.81;4955650;28;20306;-71
2021/12/28 08:49:33;;;;;;;12.90;4.45;;;;;;;2.94;100.00;99005.25;4967277;28;20035;-71
2021/12/28 08:51:59;;;;;;;16.17;5.05;;;;;;;2.90;100.00;99012.38;4962031;28;20507;-71
2021/12/28 08:54:24;;;;;;;10.27;5.00;;;;;;;2.90;100.00;99009.72;4977082;28;20038;-70
2021/12/28 08:56:51;;;;;;;10.63;4.60;;;;;;;2.95;100.00;99006.78;4969423;28;20031;-70
2021/12/28 08:59:18;;;;;;;9.75;4.18;;;;;;;2.91;100.00;99007.81;4959431;28;20035;-70
2021/12/28 09:01:44;;;;;;;23.48;7.97;;;;;;;2.90;100.00;99000.97;4975249;28;20044;-71
2021/12/28 09:04:10;;;;;;;15.55;5.68;;;;;;;2.85;100.00;99009.19;4972711;28;20130;-71
2021/12/28 09:06:36;;;;;;;11.60;4.78;;;;;;;2.85;100.00;99004.63;4970854;28;20114;-71
2021/12/28 09:09:02;;;;;;;11.73;4.95;;;;;;;2.86;100.00;99000.09;4964953;28;20400;-71
2021/12/28 09:11:27;;;;;;;14.35;5.43;;;;;;;2.80;100.00;98988.97;4988495;28;20531;-70
2021/12/28 09:13:53;;;;;;;15.35;5.32;;;;;;;2.89;100.00;98996.75;4983689;28;20109;-71
2021/12/28 09:16:22;;;;;;;13.18;4.97;;;;;;;2.93;100.00;99002.91;4966693;28;20071;-71
2021/12/28 09:18:51;;;;;;;10.63;4.78;;;;;;;2.93;100.00;99003.69;4956720;28;20251;-70
2021/12/28 09:21:16;;;;;;;10.32;4.88;;;;;;;2.95;100.00;98996.16;4952565;28;20041;-71
2021/12/28 09:23:42;;;;;;;11.43;5.72;;;;;;;3.01;100.00;98996.66;4967749;28;20035;-71
2021/12/28 09:26:07;;;;;;;16.48;5.60;;;;;;;2.92;100.00;98994.19;4958624;28;20975;-71
2021/12/28 09:28:33;;;;;;;13.65;5.57;;;;;;;2.88;100.00;98993.34;4959367;28;20195;-71
2021/12/28 09:30:59;;;;;;;13.15;5.63;;;;;;;2.89;100.00;98986.91;4961016;28;20035;-71
2021/12/28 09:33:24;;;;;;;16.92;6.20;;;;;;;2.87;100.00;98991.78;4972221;28;20035;-71
2021/12/28 09:35:51;;;;;;;17.98;6.45;;;;;;;3.01;100.00;98997.44;4965055;28;20101;-70
2021/12/28 09:38:19;;;;;;;19.05;6.20;;;;;;;2.95;100.00;98988.19;4962909;28;20035;-71
2021/12/28 09:40:46;;;;;;;16.83;6.03;;;;;;;2.92;100.00;98986.22;4956223;28;20392;-71
2021/12/28 09:43:14;;;;;;;12.32;5.63;;;;;;;2.93;100.00;98974.47;4961534;28;20039;-71
2021/12/28 09:45:40;;;;;;;15.93;5.55;;;;;;;2.91;100.00;98966.06;4956577;28;20467;-71
2021/12/28 09:48:07;;;;;;;17.80;6.45;;;;;;;3.03;100.00;98959.88;4971503;28;20066;-71
2021/12/28 09:50:34;;;;;;;12.60;5.85;;;;;;;3.05;100.00;98966.38;4977225;28;20052;-71
2021/12/28 09:53:01;;;;;;;11.65;5.20;;;;;;;3.10;100.00;98966.09;4965955;28;20364;-71
2021/12/28 09:55:29;;;;;;;15.98;5.32;;;;;;;3.12;100.00;98969.19;4974099;28;20037;-71
2021/12/28 09:57:56;;;;;;;21.98;6.35;;;;;;;3.03;100.00;98960.63;4963656;28;20479;-71
2021/12/28 10:00:22;;;;;;;14.52;6.30;;;;;;;2.94;100.00;98959.28;4953227;28;20408;-71
2021/12/28 10:02:49;;;;;;;11.05;5.05;;;;;;;3.03;100.00;98960.63;4959945;28;20105;-71
2021/12/28 10:05:18;;;;;;;16.48;5.43;;;;;;;3.17;100.00;98963.63;4957432;28;20137;-71
2021/12/28 10:07:46;;;;;;;12.25;4.30;;;;;;;3.08;100.00;98955.03;4959838;28;20039;-70
2021/12/28 10:10:12;;;;;;;11.85;5.50;;;;;;;3.18;100.00;98954.50;4964581;28;20105;-71
2021/12/28 10:12:46;;;;;;;13.18;5.40;;;;;;;3.21;100.00;98961.81;4962270;28;20034;-71
2021/12/28 10:15:16;;;;;;;17.10;5.20;;;;;;;3.17;100.00;98952.97;4959184;28;20566;-71
2021/12/28 10:17:44;;;;;;;11.65;5.07;;;;;;;3.13;100.00;98946.81;4960885;28;20041;-71
2021/12/28 10:20:26;;;;;;;17.38;5.35;;;;;;;3.12;100.00;98947.91;4964948;28;20631;-71
2021/12/28 10:22:56;;;;;;;14.73;5.82;;;;;;;3.11;100.00;98932.31;4966207;28;20117;-71
2021/12/28 10:25:36;;;;;;;12.25;6.35;;;;;;;3.18;100.00;98937.78;4962841;28;20049;-71
2021/12/28 10:28:09;;;;;;;13.27;5.47;;;;;;;3.15;100.00;98936.59;4971732;28;20038;-71
2021/12/28 10:30:56;;;;;;;18.10;6.10;;;;;;;3.13;100.00;98936.19;4959983;28;20389;-71
2021/12/28 10:33:25;;;;;;;15.10;5.88;;;;;;;3.12;100.00;98939.94;4963940;28;20266;-71
2021/12/28 10:36:03;;;;;;;17.95;5.57;;;;;;;3.32;100.00;98930.88;4961222;28;20050;-71
2021/12/28 10:38:35;;;;;;;11.27;5.28;;;;;;;3.31;100.00;98929.31;4955945;28;20070;-71
2021/12/28 10:41:13;;;;;;;14.43;5.45;;;;;;;3.41;100.00;98920.81;4955715;28;20027;-71
2021/12/28 10:43:45;;;;;;;18.15;6.25;;;;;;;3.38;100.00;98915.41;4962539;28;20030;-71
2021/12/28 10:46:14;;;;;;;13.38;6.03;;;;;;;3.39;100.00;98906.31;4952132;28;20509;-73
2021/12/28 10:48:51;;;;;;;18.13;6.35;;;;;;;3.32;100.00;98911.50;4956012;28;20415;-71
2021/12/28 10:51:24;;;;;;;15.18;6.43;;;;;;;3.28;100.00;98914.06;4954513;28;20063;-71
2021/12/28 10:56:24;;;;;;;19.25;6.57;;;;;;;3.39;100.00;98912.41;4957242;28;20078;-71
2021/12/28 10:58:53;;;;;;;18.00;5.90;;;;;;;3.36;100.00;98901.69;4955934;28;20047;-71
2021/12/28 11:01:24;;;;;;;21.90;7.72;;;;;;;3.50;100.00;98910.72;4951253;28;20057;-71
2021/12/28 11:03:52;;;;;;;15.20;6.18;;;;;;;3.50;100.00;98915.28;4952164;28;20036;-71
2021/12/28 11:06:25;;;;;;;17.58;6.40;;;;;;;3.37;100.00;98906.66;4951058;28;20035;-72
2021/12/28 11:08:54;;;;;;;13.15;5.85;;;;;;;3.32;100.00;98900.84;4959911;28;20039;-72
2021/12/28 11:11:24;;;;;;;13.85;5.95;;;;;;;3.34;100.00;98896.72;4967259;28;20035;-72
2021/12/28 11:13:53;;;;;;;14.57;6.05;;;;;;;3.37;100.00;98893.34;4962857;28;20501;-72
2021/12/28 11:16:23;;;;;;;15.13;5.30;;;;;;;3.42;100.00;98881.69;4969533;28;20092;-71
2021/12/28 11:18:52;;;;;;;13.00;5.85;;;;;;;3.44;100.00;98882.88;4949643;28;20034;-72
2021/12/28 11:21:19;;;;;;;18.95;6.25;;;;;;;3.46;100.00;98888.63;4968393;28;20071;-72
2021/12/28 11:23:49;;;;;;;23.88;7.65;;;;;;;3.40;100.00;98881.25;4970896;28;20735;-72
2021/12/28 11:26:22;;;;;;;14.48;6.63;;;;;;;3.40;100.00;98871.41;4958966;28;20042;-72
2021/12/28 11:28:56;;;;;;;19.20;7.00;;;;;;;3.37;100.00;98856.13;4951031;28;20031;-71
2021/12/28 11:31:25;;;;;;;12.55;6.20;;;;;;;3.50;100.00;98854.84;4948338;28;20041;-71